sensor_id;sensor_type;location;lat;lon;timestamp;P1;durP1;ratioP1;P2;durP2;ratioP2
18592;SDS011;9426;54.118;17.948;2022-08-14T00:01:48;2.53;;;2.10;;
18592;SDS011;9426;54.118;17.948;2022-08-14T00:07:12;5.60;;;2.70;;
18592;SDS011;9426;54.118;17.948;2022-08-14T00:12:37;4.43;;;2.50;;
18592;SDS011;9426;54.118;17.948;2022-08-14T00:18:03;5.37;;;2.50;;
18592;SDS011;9426;54.118;17.948;2022-08-14T00:23:27;4.90;;;2.60;;
18592;SDS011;9426;54.118;17.948;2022-08-14T00:28:52;6.43;;;2.60;;
18592;SDS011;9426;54.118;17.948;2022-08-14T00:34:16;4.00;;;2.67;;
18592;SDS011;9426;54.118;17.948;2022-08-14T00:39:39;6.40;;;3.23;;
18592;SDS011;9426;54.118;17.948;2022-08-14T00:45:05;5.10;;;2.90;;
18592;SDS011;9426;54.118;17.948;2022-08-14T00:50:30;4.73;;;3.00;;
18592;SDS011;9426;54.118;17.948;2022-08-14T00:55:54;4.87;;;2.80;;
18592;SDS011;9426;54.118;17.948;2022-08-14T01:01:19;4.80;;;3.00;;
18592;SDS011;9426;54.118;17.948;2022-08-14T01:06:43;4.73;;;2.67;;
18592;SDS011;9426;54.118;17.948;2022-08-14T01:12:06;4.13;;;3.20;;
18592;SDS011;9426;54.118;17.948;2022-08-14T01:17:32;3.90;;;2.60;;
18592;SDS011;9426;54.118;17.948;2022-08-14T01:23:14;4.67;;;2.90;;
18592;SDS011;9426;54.118;17.948;2022-08-14T01:28:38;3.50;;;2.53;;
18592;SDS011;9426;54.118;17.948;2022-08-14T01:34:03;6.53;;;2.93;;
18592;SDS011;9426;54.118;17.948;2022-08-14T01:39:29;3.53;;;2.73;;
18592;SDS011;9426;54.118;17.948;2022-08-14T01:44:53;3.27;;;2.13;;
18592;SDS011;9426;54.118;17.948;2022-08-14T01:50:17;4.53;;;3.07;;
18592;SDS011;9426;54.118;17.948;2022-08-14T01:55:42;6.83;;;3.53;;
18592;SDS011;9426;54.118;17.948;2022-08-14T02:01:06;5.70;;;2.70;;
18592;SDS011;9426;54.118;17.948;2022-08-14T02:06:30;5.00;;;3.03;;
18592;SDS011;9426;54.118;17.948;2022-08-14T02:11:54;4.73;;;3.10;;
18592;SDS011;9426;54.118;17.948;2022-08-14T02:17:18;6.50;;;3.20;;
18592;SDS011;9426;54.118;17.948;2022-08-14T02:22:44;3.10;;;2.77;;
18592;SDS011;9426;54.118;17.948;2022-08-14T02:28:09;6.27;;;3.43;;
18592;SDS011;9426;54.118;17.948;2022-08-14T02:33:33;6.80;;;3.50;;
18592;SDS011;9426;54.118;17.948;2022-08-14T02:38:58;9.57;;;3.67;;
18592;SDS011;9426;54.118;17.948;2022-08-14T02:44:23;4.87;;;3.20;;
18592;SDS011;9426;54.118;17.948;2022-08-14T02:49:47;3.90;;;3.20;;
18592;SDS011;9426;54.118;17.948;2022-08-14T02:55:12;6.40;;;3.67;;
18592;SDS011;9426;54.118;17.948;2022-08-14T03:00:36;5.50;;;3.30;;
18592;SDS011;9426;54.118;17.948;2022-08-14T03:06:00;6.13;;;4.23;;
18592;SDS011;9426;54.118;17.948;2022-08-14T03:11:24;7.30;;;4.80;;
18592;SDS011;9426;54.118;17.948;2022-08-14T03:16:50;5.90;;;4.10;;
18592;SDS011;9426;54.118;17.948;2022-08-14T03:22:13;6.67;;;4.70;;
18592;SDS011;9426;54.118;17.948;2022-08-14T03:27:37;8.43;;;4.60;;
18592;SDS011;9426;54.118;17.948;2022-08-14T03:33:01;8.57;;;5.57;;
18592;SDS011;9426;54.118;17.948;2022-08-14T03:38:26;10.50;;;4.70;;
18592;SDS011;9426;54.118;17.948;2022-08-14T03:43:51;7.20;;;5.13;;
18592;SDS011;9426;54.118;17.948;2022-08-14T03:49:20;8.20;;;4.50;;
18592;SDS011;9426;54.118;17.948;2022-08-14T03:54:45;10.60;;;5.17;;
18592;SDS011;9426;54.118;17.948;2022-08-14T04:00:10;10.80;;;5.40;;
18592;SDS011;9426;54.118;17.948;2022-08-14T04:05:36;7.07;;;4.93;;
18592;SDS011;9426;54.118;17.948;2022-08-14T04:10:59;6.90;;;4.97;;
18592;SDS011;9426;54.118;17.948;2022-08-14T04:16:23;8.87;;;4.80;;
18592;SDS011;9426;54.118;17.948;2022-08-14T04:21:48;5.77;;;4.30;;
18592;SDS011;9426;54.118;17.948;2022-08-14T04:27:12;7.03;;;4.33;;
18592;SDS011;9426;54.118;17.948;2022-08-14T04:32:35;11.37;;;5.27;;
18592;SDS011;9426;54.118;17.948;2022-08-14T04:38:00;8.53;;;4.70;;
18592;SDS011;9426;54.118;17.948;2022-08-14T04:43:44;6.27;;;4.17;;
18592;SDS011;9426;54.118;17.948;2022-08-14T04:49:08;8.57;;;4.07;;
18592;SDS011;9426;54.118;17.948;2022-08-14T04:54:33;8.57;;;4.00;;
18592;SDS011;9426;54.118;17.948;2022-08-14T04:59:56;6.27;;;3.43;;
18592;SDS011;9426;54.118;17.948;2022-08-14T05:05:19;8.60;;;3.27;;
18592;SDS011;9426;54.118;17.948;2022-08-14T05:10:47;5.07;;;3.53;;
18592;SDS011;9426;54.118;17.948;2022-08-14T05:16:11;8.53;;;3.10;;
18592;SDS011;9426;54.118;17.948;2022-08-14T05:21:35;8.27;;;3.37;;
18592;SDS011;9426;54.118;17.948;2022-08-14T05:27:00;7.37;;;3.07;;
18592;SDS011;9426;54.118;17.948;2022-08-14T05:32:24;6.60;;;3.03;;
18592;SDS011;9426;54.118;17.948;2022-08-14T05:37:48;8.43;;;2.87;;
18592;SDS011;9426;54.118;17.948;2022-08-14T05:43:13;8.27;;;3.00;;
18592;SDS011;9426;54.118;17.948;2022-08-14T05:48:37;5.53;;;3.10;;
18592;SDS011;9426;54.118;17.948;2022-08-14T05:54:00;6.97;;;2.70;;
18592;SDS011;9426;54.118;17.948;2022-08-14T05:59:25;8.23;;;2.83;;
18592;SDS011;9426;54.118;17.948;2022-08-14T06:04:48;5.17;;;3.17;;
18592;SDS011;9426;54.118;17.948;2022-08-14T06:10:12;7.27;;;3.20;;
18592;SDS011;9426;54.118;17.948;2022-08-14T06:15:37;8.57;;;2.80;;
18592;SDS011;9426;54.118;17.948;2022-08-14T06:21:01;8.07;;;3.13;;
18592;SDS011;9426;54.118;17.948;2022-08-14T06:26:25;5.00;;;2.57;;
18592;SDS011;9426;54.118;17.948;2022-08-14T06:31:50;5.77;;;2.93;;
18592;SDS011;9426;54.118;17.948;2022-08-14T06:37:13;6.20;;;2.50;;
18592;SDS011;9426;54.118;17.948;2022-08-14T06:42:39;3.92;;;2.38;;
18592;SDS011;9426;54.118;17.948;2022-08-14T06:48:05;14.80;;;6.63;;
18592;SDS011;9426;54.118;17.948;2022-08-14T06:53:37;9.70;;;3.08;;
18592;SDS011;9426;54.118;17.948;2022-08-14T06:59:00;6.05;;;2.63;;
18592;SDS011;9426;54.118;17.948;2022-08-14T07:04:25;12.93;;;2.33;;
18592;SDS011;9426;54.118;17.948;2022-08-14T07:10:07;4.68;;;2.55;;
18592;SDS011;9426;54.118;17.948;2022-08-14T07:15:32;8.00;;;2.65;;
18592;SDS011;9426;54.118;17.948;2022-08-14T07:20:57;6.55;;;2.28;;
18592;SDS011;9426;54.118;17.948;2022-08-14T07:26:21;5.40;;;2.80;;
18592;SDS011;9426;54.118;17.948;2022-08-14T07:31:44;4.18;;;2.70;;
18592;SDS011;9426;54.118;17.948;2022-08-14T07:37:09;9.77;;;2.53;;
18592;SDS011;9426;54.118;17.948;2022-08-14T07:42:33;5.55;;;2.70;;
18592;SDS011;9426;54.118;17.948;2022-08-14T07:47:57;12.27;;;2.80;;
18592;SDS011;9426;54.118;17.948;2022-08-14T07:53:21;4.88;;;2.40;;
18592;SDS011;9426;54.118;17.948;2022-08-14T07:58:45;8.38;;;2.33;;
18592;SDS011;9426;54.118;17.948;2022-08-14T08:04:09;6.40;;;2.20;;
18592;SDS011;9426;54.118;17.948;2022-08-14T08:09:34;7.35;;;1.95;;
18592;SDS011;9426;54.118;17.948;2022-08-14T08:14:59;5.07;;;2.22;;
18592;SDS011;9426;54.118;17.948;2022-08-14T08:20:24;3.65;;;2.03;;
18592;SDS011;9426;54.118;17.948;2022-08-14T08:25:50;10.82;;;2.40;;
18592;SDS011;9426;54.118;17.948;2022-08-14T08:31:14;5.43;;;2.40;;
18592;SDS011;9426;54.118;17.948;2022-08-14T08:36:38;4.97;;;2.30;;
18592;SDS011;9426;54.118;17.948;2022-08-14T08:42:04;6.82;;;2.10;;
18592;SDS011;9426;54.118;17.948;2022-08-14T08:47:36;4.20;;;2.00;;
18592;SDS011;9426;54.118;17.948;2022-08-14T08:53:01;6.22;;;1.77;;
18592;SDS011;9426;54.118;17.948;2022-08-14T08:58:27;6.32;;;1.95;;
18592;SDS011;9426;54.118;17.948;2022-08-14T09:03:51;4.35;;;2.33;;
18592;SDS011;9426;54.118;17.948;2022-08-14T09:09:24;7.53;;;2.28;;
18592;SDS011;9426;54.118;17.948;2022-08-14T09:14:50;3.92;;;2.28;;
18592;SDS011;9426;54.118;17.948;2022-08-14T09:20:14;6.20;;;3.53;;
18592;SDS011;9426;54.118;17.948;2022-08-14T09:25:38;3.70;;;2.10;;
18592;SDS011;9426;54.118;17.948;2022-08-14T09:31:05;3.55;;;2.15;;
18592;SDS011;9426;54.118;17.948;2022-08-14T09:36:36;6.32;;;1.70;;
18592;SDS011;9426;54.118;17.948;2022-08-14T09:42:26;5.38;;;1.80;;
18592;SDS011;9426;54.118;17.948;2022-08-14T09:47:58;3.70;;;1.92;;
18592;SDS011;9426;54.118;17.948;2022-08-14T09:53:35;2.47;;;1.80;;
18592;SDS011;9426;54.118;17.948;2022-08-14T09:59:09;11.82;;;3.28;;
18592;SDS011;9426;54.118;17.948;2022-08-14T10:04:38;5.45;;;1.83;;
18592;SDS011;9426;54.118;17.948;2022-08-14T10:10:03;2.22;;;1.55;;
18592;SDS011;9426;54.118;17.948;2022-08-14T10:15:28;3.00;;;1.73;;
18592;SDS011;9426;54.118;17.948;2022-08-14T10:20:55;4.57;;;2.33;;
18592;SDS011;9426;54.118;17.948;2022-08-14T10:26:21;7.78;;;2.30;;
18592;SDS011;9426;54.118;17.948;2022-08-14T10:31:44;5.38;;;2.28;;
18592;SDS011;9426;54.118;17.948;2022-08-14T10:37:20;5.65;;;4.28;;
18592;SDS011;9426;54.118;17.948;2022-08-14T10:42:44;6.70;;;2.15;;
18592;SDS011;9426;54.118;17.948;2022-08-14T10:48:12;4.28;;;2.10;;
18592;SDS011;9426;54.118;17.948;2022-08-14T10:53:39;4.70;;;1.95;;
18592;SDS011;9426;54.118;17.948;2022-08-14T10:59:03;5.38;;;2.47;;
18592;SDS011;9426;54.118;17.948;2022-08-14T11:04:28;3.67;;;2.30;;
18592;SDS011;9426;54.118;17.948;2022-08-14T11:09:54;3.38;;;2.15;;
18592;SDS011;9426;54.118;17.948;2022-08-14T11:15:19;3.80;;;2.42;;
18592;SDS011;9426;54.118;17.948;2022-08-14T11:20:45;8.70;;;4.47;;
18592;SDS011;9426;54.118;17.948;2022-08-14T11:26:13;4.60;;;2.63;;
18592;SDS011;9426;54.118;17.948;2022-08-14T11:31:39;6.93;;;2.67;;
18592;SDS011;9426;54.118;17.948;2022-08-14T11:37:09;3.60;;;2.50;;
18592;SDS011;9426;54.118;17.948;2022-08-14T11:42:34;5.05;;;2.70;;
18592;SDS011;9426;54.118;17.948;2022-08-14T11:47:58;4.35;;;2.53;;
18592;SDS011;9426;54.118;17.948;2022-08-14T11:53:23;4.72;;;2.67;;
18592;SDS011;9426;54.118;17.948;2022-08-14T11:58:53;10.95;;;2.70;;
18592;SDS011;9426;54.118;17.948;2022-08-14T12:04:18;8.52;;;3.42;;
18592;SDS011;9426;54.118;17.948;2022-08-14T12:09:42;5.82;;;3.30;;
18592;SDS011;9426;54.118;17.948;2022-08-14T12:15:09;5.90;;;2.95;;
18592;SDS011;9426;54.118;17.948;2022-08-14T12:20:34;6.50;;;3.42;;
18592;SDS011;9426;54.118;17.948;2022-08-14T12:26:02;5.90;;;3.60;;
18592;SDS011;9426;54.118;17.948;2022-08-14T12:31:27;5.38;;;3.20;;
18592;SDS011;9426;54.118;17.948;2022-08-14T12:36:59;6.20;;;3.28;;
18592;SDS011;9426;54.118;17.948;2022-08-14T12:42:32;11.48;;;3.42;;
18592;SDS011;9426;54.118;17.948;2022-08-14T12:47:59;11.15;;;3.63;;
18592;SDS011;9426;54.118;17.948;2022-08-14T12:53:32;7.45;;;3.40;;
18592;SDS011;9426;54.118;17.948;2022-08-14T12:58:57;8.77;;;3.55;;
18592;SDS011;9426;54.118;17.948;2022-08-14T13:04:21;9.70;;;3.70;;
18592;SDS011;9426;54.118;17.948;2022-08-14T13:09:44;7.82;;;3.85;;
18592;SDS011;9426;54.118;17.948;2022-08-14T13:15:08;7.82;;;3.67;;
18592;SDS011;9426;54.118;17.948;2022-08-14T13:20:34;6.38;;;3.70;;
18592;SDS011;9426;54.118;17.948;2022-08-14T13:25:57;10.65;;;3.72;;
18592;SDS011;9426;54.118;17.948;2022-08-14T13:31:21;8.40;;;3.90;;
18592;SDS011;9426;54.118;17.948;2022-08-14T13:36:47;12.77;;;3.78;;
18592;SDS011;9426;54.118;17.948;2022-08-14T13:42:11;7.30;;;4.20;;
18592;SDS011;9426;54.118;17.948;2022-08-14T13:47:35;7.55;;;4.15;;
18592;SDS011;9426;54.118;17.948;2022-08-14T13:53:01;9.02;;;3.72;;
18592;SDS011;9426;54.118;17.948;2022-08-14T13:58:25;7.10;;;3.60;;
18592;SDS011;9426;54.118;17.948;2022-08-14T14:03:50;9.13;;;3.90;;
18592;SDS011;9426;54.118;17.948;2022-08-14T14:09:19;7.32;;;3.80;;
18592;SDS011;9426;54.118;17.948;2022-08-14T14:14:48;6.47;;;3.70;;
18592;SDS011;9426;54.118;17.948;2022-08-14T14:20:13;9.13;;;3.85;;
18592;SDS011;9426;54.118;17.948;2022-08-14T14:25:40;5.80;;;3.72;;
18592;SDS011;9426;54.118;17.948;2022-08-14T14:31:06;10.68;;;4.10;;
18592;SDS011;9426;54.118;17.948;2022-08-14T14:36:32;6.45;;;3.97;;
18592;SDS011;9426;54.118;17.948;2022-08-14T14:41:57;6.88;;;4.13;;
18592;SDS011;9426;54.118;17.948;2022-08-14T14:47:21;12.18;;;6.75;;
18592;SDS011;9426;54.118;17.948;2022-08-14T14:52:47;9.98;;;4.90;;
18592;SDS011;9426;54.118;17.948;2022-08-14T14:58:12;8.65;;;3.50;;
18592;SDS011;9426;54.118;17.948;2022-08-14T15:03:39;7.47;;;3.90;;
18592;SDS011;9426;54.118;17.948;2022-08-14T15:09:03;10.90;;;4.32;;
18592;SDS011;9426;54.118;17.948;2022-08-14T15:14:28;6.57;;;4.38;;
18592;SDS011;9426;54.118;17.948;2022-08-14T15:19:52;9.88;;;4.18;;
18592;SDS011;9426;54.118;17.948;2022-08-14T15:25:17;8.45;;;3.90;;
18592;SDS011;9426;54.118;17.948;2022-08-14T15:30:42;8.43;;;4.10;;
18592;SDS011;9426;54.118;17.948;2022-08-14T15:36:07;8.82;;;4.47;;
18592;SDS011;9426;54.118;17.948;2022-08-14T15:41:30;5.47;;;4.18;;
18592;SDS011;9426;54.118;17.948;2022-08-14T15:46:56;6.85;;;4.38;;
18592;SDS011;9426;54.118;17.948;2022-08-14T15:52:20;8.13;;;4.88;;
18592;SDS011;9426;54.118;17.948;2022-08-14T15:57:44;6.82;;;4.43;;
18592;SDS011;9426;54.118;17.948;2022-08-14T16:03:09;7.45;;;4.60;;
18592;SDS011;9426;54.118;17.948;2022-08-14T16:08:34;6.32;;;4.85;;
18592;SDS011;9426;54.118;17.948;2022-08-14T16:13:57;9.07;;;5.05;;
18592;SDS011;9426;54.118;17.948;2022-08-14T16:19:22;8.77;;;5.40;;
18592;SDS011;9426;54.118;17.948;2022-08-14T16:24:47;12.73;;;5.60;;
18592;SDS011;9426;54.118;17.948;2022-08-14T16:30:15;7.93;;;5.50;;
18592;SDS011;9426;54.118;17.948;2022-08-14T16:35:40;13.07;;;6.25;;
18592;SDS011;9426;54.118;17.948;2022-08-14T16:41:05;9.82;;;5.30;;
18592;SDS011;9426;54.118;17.948;2022-08-14T16:46:47;12.15;;;5.63;;
18592;SDS011;9426;54.118;17.948;2022-08-14T16:52:16;11.15;;;7.07;;
18592;SDS011;9426;54.118;17.948;2022-08-14T16:57:47;19.30;;;3.63;;
18592;SDS011;9426;54.118;17.948;2022-08-14T17:03:12;11.93;;;2.50;;
18592;SDS011;9426;54.118;17.948;2022-08-14T17:08:36;17.27;;;2.88;;
18592;SDS011;9426;54.118;17.948;2022-08-14T17:14:00;4.68;;;2.70;;
18592;SDS011;9426;54.118;17.948;2022-08-14T17:19:24;7.55;;;2.88;;
18592;SDS011;9426;54.118;17.948;2022-08-14T17:24:49;12.32;;;3.65;;
18592;SDS011;9426;54.118;17.948;2022-08-14T17:30:12;9.07;;;3.50;;
18592;SDS011;9426;54.118;17.948;2022-08-14T17:35:37;8.57;;;3.67;;
18592;SDS011;9426;54.118;17.948;2022-08-14T17:46:44;7.60;;;4.20;;
18592;SDS011;9426;54.118;17.948;2022-08-14T17:52:10;6.30;;;3.97;;
18592;SDS011;9426;54.118;17.948;2022-08-14T17:57:37;12.27;;;4.77;;
18592;SDS011;9426;54.118;17.948;2022-08-14T18:03:01;13.30;;;4.43;;
18592;SDS011;9426;54.118;17.948;2022-08-14T18:08:27;8.43;;;4.57;;
18592;SDS011;9426;54.118;17.948;2022-08-14T18:13:56;8.87;;;5.10;;
18592;SDS011;9426;54.118;17.948;2022-08-14T18:19:21;8.30;;;4.83;;
18592;SDS011;9426;54.118;17.948;2022-08-14T18:24:46;7.80;;;5.03;;
18592;SDS011;9426;54.118;17.948;2022-08-14T18:30:11;12.17;;;7.13;;
18592;SDS011;9426;54.118;17.948;2022-08-14T18:35:42;8.97;;;6.80;;
18592;SDS011;9426;54.118;17.948;2022-08-14T18:52:45;9.87;;;7.03;;
18592;SDS011;9426;54.118;17.948;2022-08-14T18:58:10;9.63;;;6.80;;
18592;SDS011;9426;54.118;17.948;2022-08-14T19:15:17;12.23;;;7.90;;
18592;SDS011;9426;54.118;17.948;2022-08-14T19:20:47;11.47;;;7.77;;
18592;SDS011;9426;54.118;17.948;2022-08-14T19:26:23;11.63;;;7.43;;
18592;SDS011;9426;54.118;17.948;2022-08-14T19:31:48;10.40;;;7.37;;
18592;SDS011;9426;54.118;17.948;2022-08-14T19:37:41;12.23;;;8.90;;
18592;SDS011;9426;54.118;17.948;2022-08-14T19:43:06;13.60;;;8.83;;
18592;SDS011;9426;54.118;17.948;2022-08-14T19:48:30;12.77;;;8.63;;
18592;SDS011;9426;54.118;17.948;2022-08-14T19:53:55;13.33;;;9.33;;
18592;SDS011;9426;54.118;17.948;2022-08-14T19:59:26;12.57;;;9.23;;
18592;SDS011;9426;54.118;17.948;2022-08-14T20:04:55;12.80;;;8.87;;
18592;SDS011;9426;54.118;17.948;2022-08-14T20:10:28;11.17;;;8.37;;
18592;SDS011;9426;54.118;17.948;2022-08-14T20:15:52;12.20;;;8.43;;
18592;SDS011;9426;54.118;17.948;2022-08-14T20:21:15;10.10;;;7.27;;
18592;SDS011;9426;54.118;17.948;2022-08-14T20:26:41;9.63;;;7.70;;
18592;SDS011;9426;54.118;17.948;2022-08-14T20:32:05;12.57;;;8.60;;
18592;SDS011;9426;54.118;17.948;2022-08-14T20:37:28;9.80;;;8.07;;
18592;SDS011;9426;54.118;17.948;2022-08-14T20:42:57;12.43;;;8.37;;
18592;SDS011;9426;54.118;17.948;2022-08-14T20:48:38;11.20;;;8.00;;
18592;SDS011;9426;54.118;17.948;2022-08-14T20:54:03;10.73;;;7.97;;
18592;SDS011;9426;54.118;17.948;2022-08-14T20:59:30;9.93;;;8.17;;
18592;SDS011;9426;54.118;17.948;2022-08-14T21:05:01;11.53;;;8.30;;
18592;SDS011;9426;54.118;17.948;2022-08-14T21:10:27;11.63;;;8.50;;
18592;SDS011;9426;54.118;17.948;2022-08-14T21:15:52;10.27;;;8.80;;
18592;SDS011;9426;54.118;17.948;2022-08-14T21:21:20;12.97;;;9.17;;
18592;SDS011;9426;54.118;17.948;2022-08-14T21:26:49;11.37;;;9.13;;
18592;SDS011;9426;54.118;17.948;2022-08-14T21:32:14;12.10;;;8.63;;
18592;SDS011;9426;54.118;17.948;2022-08-14T21:37:54;12.13;;;9.13;;
18592;SDS011;9426;54.118;17.948;2022-08-14T21:43:19;11.63;;;9.17;;
18592;SDS011;9426;54.118;17.948;2022-08-14T21:48:44;11.23;;;8.70;;
18592;SDS011;9426;54.118;17.948;2022-08-14T21:54:09;11.63;;;8.80;;
18592;SDS011;9426;54.118;17.948;2022-08-14T21:59:33;11.60;;;9.07;;
18592;SDS011;9426;54.118;17.948;2022-08-14T22:04:56;12.97;;;10.03;;
18592;SDS011;9426;54.118;17.948;2022-08-14T22:10:21;12.77;;;10.07;;
18592;SDS011;9426;54.118;17.948;2022-08-14T22:15:45;11.30;;;8.63;;
18592;SDS011;9426;54.118;17.948;2022-08-14T22:21:10;12.70;;;8.73;;
18592;SDS011;9426;54.118;17.948;2022-08-14T22:26:35;11.27;;;9.37;;
18592;SDS011;9426;54.118;17.948;2022-08-14T22:32:03;12.97;;;9.43;;
18592;SDS011;9426;54.118;17.948;2022-08-14T22:37:27;12.37;;;10.20;;
18592;SDS011;9426;54.118;17.948;2022-08-14T22:42:52;12.53;;;10.00;;
18592;SDS011;9426;54.118;17.948;2022-08-14T22:48:16;11.87;;;9.33;;
18592;SDS011;9426;54.118;17.948;2022-08-14T22:53:39;10.50;;;9.10;;
18592;SDS011;9426;54.118;17.948;2022-08-14T22:59:06;11.30;;;9.57;;
18592;SDS011;9426;54.118;17.948;2022-08-14T23:04:32;12.17;;;10.00;;
18592;SDS011;9426;54.118;17.948;2022-08-14T23:09:57;13.47;;;10.83;;
18592;SDS011;9426;54.118;17.948;2022-08-14T23:15:24;14.43;;;10.70;;
18592;SDS011;9426;54.118;17.948;2022-08-14T23:20:48;16.97;;;11.70;;
18592;SDS011;9426;54.118;17.948;2022-08-14T23:26:12;15.73;;;11.67;;
18592;SDS011;9426;54.118;17.948;2022-08-14T23:31:37;15.10;;;11.30;;
18592;SDS011;9426;54.118;17.948;2022-08-14T23:37:01;14.63;;;11.10;;
18592;SDS011;9426;54.118;17.948;2022-08-14T23:42:24;13.20;;;10.87;;
18592;SDS011;9426;54.118;17.948;2022-08-14T23:47:52;13.13;;;10.43;;
18592;SDS011;9426;54.118;17.948;2022-08-14T23:53:20;14.97;;;11.43;;
18592;SDS011;9426;54.118;17.948;2022-08-14T23:58:46;13.80;;;11.20;;
